sensor_id;sensor_type;location;lat;lon;timestamp;P1;durP1;ratioP1;P2;durP2;ratioP2
13319;SDS011;59599;47.608;12.190;2024-03-29T05:02:01;4.50;;;4.10;;
13319;SDS011;59599;47.608;12.190;2024-03-29T05:04:27;3.57;;;3.27;;
13319;SDS011;59599;47.608;12.190;2024-03-29T05:06:56;4.77;;;3.90;;
13319;SDS011;59599;47.608;12.190;2024-03-29T05:09:25;4.90;;;3.63;;
13319;SDS011;59599;47.608;12.190;2024-03-29T05:11:52;5.30;;;4.00;;
13319;SDS011;59599;47.608;12.190;2024-03-29T05:14:20;5.47;;;4.10;;
13319;SDS011;59599;47.608;12.190;2024-03-29T05:16:47;7.43;;;6.07;;
13319;SDS011;59599;47.608;12.190;2024-03-29T05:19:13;6.57;;;5.50;;
13319;SDS011;59599;47.608;12.190;2024-03-29T05:21:40;6.20;;;5.17;;
13319;SDS011;59599;47.608;12.190;2024-03-29T05:24:06;5.53;;;4.77;;
13319;SDS011;59599;47.608;12.190;2024-03-29T05:26:32;5.43;;;4.93;;
13319;SDS011;59599;47.608;12.190;2024-03-29T05:28:58;6.20;;;5.20;;
13319;SDS011;59599;47.608;12.190;2024-03-29T05:31:24;4.67;;;4.20;;
13319;SDS011;59599;47.608;12.190;2024-03-29T05:33:51;4.80;;;4.30;;
13319;SDS011;59599;47.608;12.190;2024-03-29T05:36:16;5.83;;;5.20;;
13319;SDS011;59599;47.608;12.190;2024-03-29T05:38:43;7.60;;;5.63;;
13319;SDS011;59599;47.608;12.190;2024-03-29T05:41:09;5.77;;;5.17;;
13319;SDS011;59599;47.608;12.190;2024-03-29T05:43:35;7.10;;;5.80;;
13319;SDS011;59599;47.608;12.190;2024-03-29T05:46:01;6.43;;;5.50;;
13319;SDS011;59599;47.608;12.190;2024-03-29T05:48:27;6.30;;;5.70;;
13319;SDS011;59599;47.608;12.190;2024-03-29T05:50:54;5.70;;;5.17;;
13319;SDS011;59599;47.608;12.190;2024-03-29T05:53:20;5.73;;;4.50;;
13319;SDS011;59599;47.608;12.190;2024-03-29T05:55:45;4.50;;;4.07;;
13319;SDS011;59599;47.608;12.190;2024-03-29T05:58:11;4.67;;;4.27;;
13319;SDS011;59599;47.608;12.190;2024-03-29T06:00:42;5.03;;;4.37;;
13319;SDS011;59599;47.608;12.190;2024-03-29T06:03:07;4.90;;;4.03;;
13319;SDS011;59599;47.608;12.190;2024-03-29T06:05:33;4.30;;;3.90;;
13319;SDS011;59599;47.608;12.190;2024-03-29T06:07:59;4.53;;;4.13;;
13319;SDS011;59599;47.608;12.190;2024-03-29T06:10:25;4.80;;;4.30;;
13319;SDS011;59599;47.608;12.190;2024-03-29T06:12:51;5.47;;;4.97;;
13319;SDS011;59599;47.608;12.190;2024-03-29T06:15:17;5.87;;;5.27;;
13319;SDS011;59599;47.608;12.190;2024-03-29T06:18:01;7.43;;;5.77;;
13319;SDS011;59599;47.608;12.190;2024-03-29T06:20:27;7.73;;;5.90;;
13319;SDS011;59599;47.608;12.190;2024-03-29T06:22:53;6.97;;;6.27;;
13319;SDS011;59599;47.608;12.190;2024-03-29T06:25:19;7.30;;;6.53;;
13319;SDS011;59599;47.608;12.190;2024-03-29T06:27:45;10.20;;;8.10;;
13319;SDS011;59599;47.608;12.190;2024-03-29T06:30:14;8.67;;;7.70;;
13319;SDS011;59599;47.608;12.190;2024-03-29T06:32:44;8.27;;;7.37;;
13319;SDS011;59599;47.608;12.190;2024-03-29T06:35:10;10.03;;;8.37;;
13319;SDS011;59599;47.608;12.190;2024-03-29T06:37:36;6.53;;;5.87;;
13319;SDS011;59599;47.608;12.190;2024-03-29T06:40:02;6.23;;;5.50;;
13319;SDS011;59599;47.608;12.190;2024-03-29T06:42:28;5.93;;;5.33;;
13319;SDS011;59599;47.608;12.190;2024-03-29T06:44:53;6.03;;;5.30;;
13319;SDS011;59599;47.608;12.190;2024-03-29T06:47:20;5.17;;;4.53;;
13319;SDS011;59599;47.608;12.190;2024-03-29T06:49:45;5.47;;;4.97;;
13319;SDS011;59599;47.608;12.190;2024-03-29T06:52:12;6.77;;;5.73;;
13319;SDS011;59599;47.608;12.190;2024-03-29T06:54:38;6.13;;;5.33;;
13319;SDS011;59599;47.608;12.190;2024-03-29T06:57:04;7.53;;;5.23;;
13319;SDS011;59599;47.608;12.190;2024-03-29T06:59:30;6.37;;;5.53;;
13319;SDS011;59599;47.608;12.190;2024-03-29T07:01:55;5.60;;;5.03;;
13319;SDS011;59599;47.608;12.190;2024-03-29T07:04:22;5.50;;;5.00;;
13319;SDS011;59599;47.608;12.190;2024-03-29T07:06:48;8.40;;;6.70;;
13319;SDS011;59599;47.608;12.190;2024-03-29T07:09:17;5.30;;;4.80;;
13319;SDS011;59599;47.608;12.190;2024-03-29T07:11:44;5.30;;;4.80;;
13319;SDS011;59599;47.608;12.190;2024-03-29T07:14:11;5.10;;;4.60;;
13319;SDS011;59599;47.608;12.190;2024-03-29T07:16:36;4.60;;;4.20;;
13319;SDS011;59599;47.608;12.190;2024-03-29T07:19:02;4.13;;;3.73;;
13319;SDS011;59599;47.608;12.190;2024-03-29T07:21:28;3.73;;;3.43;;
13319;SDS011;59599;47.608;12.190;2024-03-29T07:23:54;3.60;;;3.30;;
13319;SDS011;59599;47.608;12.190;2024-03-29T07:26:20;3.10;;;2.80;;
13319;SDS011;59599;47.608;12.190;2024-03-29T07:28:46;4.13;;;3.40;;
13319;SDS011;59599;47.608;12.190;2024-03-29T07:31:12;3.80;;;3.00;;
13319;SDS011;59599;47.608;12.190;2024-03-29T07:33:38;6.10;;;3.53;;
13319;SDS011;59599;47.608;12.190;2024-03-29T07:36:05;6.20;;;3.23;;
13319;SDS011;59599;47.608;12.190;2024-03-29T07:38:31;3.53;;;3.23;;
13319;SDS011;59599;47.608;12.190;2024-03-29T07:40:57;3.70;;;3.30;;
13319;SDS011;59599;47.608;12.190;2024-03-29T07:43:23;4.90;;;3.40;;
13319;SDS011;59599;47.608;12.190;2024-03-29T07:45:49;3.40;;;3.10;;
13319;SDS011;59599;47.608;12.190;2024-03-29T07:48:15;4.13;;;3.20;;
13319;SDS011;59599;47.608;12.190;2024-03-29T07:50:42;3.67;;;3.20;;
13319;SDS011;59599;47.608;12.190;2024-03-29T07:53:08;5.13;;;3.17;;
13319;SDS011;59599;47.608;12.190;2024-03-29T07:55:35;5.77;;;2.83;;
13319;SDS011;59599;47.608;12.190;2024-03-29T07:58:02;4.37;;;2.67;;
13319;SDS011;59599;47.608;12.190;2024-03-29T08:00:30;3.80;;;2.60;;
13319;SDS011;59599;47.608;12.190;2024-03-29T08:02:57;3.43;;;2.70;;
13319;SDS011;59599;47.608;12.190;2024-03-29T08:05:23;5.00;;;3.27;;
13319;SDS011;59599;47.608;12.190;2024-03-29T08:07:49;4.73;;;2.80;;
13319;SDS011;59599;47.608;12.190;2024-03-29T08:10:15;4.43;;;2.97;;
13319;SDS011;59599;47.608;12.190;2024-03-29T08:12:41;3.30;;;2.70;;
13319;SDS011;59599;47.608;12.190;2024-03-29T08:15:07;2.63;;;2.43;;
13319;SDS011;59599;47.608;12.190;2024-03-29T08:17:33;2.40;;;2.20;;
13319;SDS011;59599;47.608;12.190;2024-03-29T08:20:00;2.60;;;2.17;;
13319;SDS011;59599;47.608;12.190;2024-03-29T08:22:26;2.97;;;2.23;;
13319;SDS011;59599;47.608;12.190;2024-03-29T08:24:53;2.83;;;2.43;;
13319;SDS011;59599;47.608;12.190;2024-03-29T08:27:19;5.93;;;2.13;;
13319;SDS011;59599;47.608;12.190;2024-03-29T08:29:45;3.33;;;2.27;;
13319;SDS011;59599;47.608;12.190;2024-03-29T08:32:11;3.53;;;2.40;;
13319;SDS011;59599;47.608;12.190;2024-03-29T08:34:38;2.33;;;2.13;;
13319;SDS011;59599;47.608;12.190;2024-03-29T08:37:03;2.17;;;1.93;;
13319;SDS011;59599;47.608;12.190;2024-03-29T08:39:30;2.30;;;2.00;;
13319;SDS011;59599;47.608;12.190;2024-03-29T08:41:56;6.17;;;2.13;;
13319;SDS011;59599;47.608;12.190;2024-03-29T08:44:23;2.20;;;2.00;;
13319;SDS011;59599;47.608;12.190;2024-03-29T08:46:49;3.60;;;2.13;;
13319;SDS011;59599;47.608;12.190;2024-03-29T08:49:15;3.37;;;1.60;;
13319;SDS011;59599;47.608;12.190;2024-03-29T08:51:41;2.10;;;1.83;;
13319;SDS011;59599;47.608;12.190;2024-03-29T08:54:07;2.40;;;1.93;;
13319;SDS011;59599;47.608;12.190;2024-03-29T08:56:33;3.10;;;1.73;;
13319;SDS011;59599;47.608;12.190;2024-03-29T08:59:02;1.77;;;1.50;;
13319;SDS011;59599;47.608;12.190;2024-03-29T09:01:32;1.77;;;1.10;;
13319;SDS011;59599;47.608;12.190;2024-03-29T09:04:01;2.80;;;1.27;;
13319;SDS011;59599;47.608;12.190;2024-03-29T09:06:26;1.20;;;1.00;;
13319;SDS011;59599;47.608;12.190;2024-03-29T09:08:52;3.47;;;1.27;;
13319;SDS011;59599;47.608;12.190;2024-03-29T09:11:18;1.10;;;1.00;;
13319;SDS011;59599;47.608;12.190;2024-03-29T09:13:44;1.10;;;0.97;;
13319;SDS011;59599;47.608;12.190;2024-03-29T09:16:10;1.50;;;1.07;;
13319;SDS011;59599;47.608;12.190;2024-03-29T09:18:36;1.93;;;1.23;;
13319;SDS011;59599;47.608;12.190;2024-03-29T09:21:02;2.47;;;1.10;;
13319;SDS011;59599;47.608;12.190;2024-03-29T09:23:28;1.30;;;1.10;;
13319;SDS011;59599;47.608;12.190;2024-03-29T09:25:55;2.20;;;0.73;;
13319;SDS011;59599;47.608;12.190;2024-03-29T09:28:24;1.50;;;0.90;;
13319;SDS011;59599;47.608;12.190;2024-03-29T09:30:50;0.77;;;0.67;;
13319;SDS011;59599;47.608;12.190;2024-03-29T09:33:16;1.00;;;0.90;;
13319;SDS011;59599;47.608;12.190;2024-03-29T09:35:42;0.97;;;0.90;;
13319;SDS011;59599;47.608;12.190;2024-03-29T09:38:08;0.97;;;0.87;;
13319;SDS011;59599;47.608;12.190;2024-03-29T09:40:34;1.80;;;0.90;;
13319;SDS011;59599;47.608;12.190;2024-03-29T09:43:01;1.33;;;1.17;;
13319;SDS011;59599;47.608;12.190;2024-03-29T09:45:34;1.27;;;1.07;;
13319;SDS011;59599;47.608;12.190;2024-03-29T09:48:02;1.23;;;0.90;;
13319;SDS011;59599;47.608;12.190;2024-03-29T09:50:28;1.50;;;1.00;;
13319;SDS011;59599;47.608;12.190;2024-03-29T09:52:55;2.27;;;1.13;;
13319;SDS011;59599;47.608;12.190;2024-03-29T09:55:21;1.67;;;1.13;;
13319;SDS011;59599;47.608;12.190;2024-03-29T09:57:48;1.97;;;1.20;;
13319;SDS011;59599;47.608;12.190;2024-03-29T10:00:14;2.47;;;1.10;;
13319;SDS011;59599;47.608;12.190;2024-03-29T10:02:40;1.23;;;0.70;;
13319;SDS011;59599;47.608;12.190;2024-03-29T10:05:06;1.57;;;1.00;;
13319;SDS011;59599;47.608;12.190;2024-03-29T10:07:33;1.43;;;1.20;;
13319;SDS011;59599;47.608;12.190;2024-03-29T10:10:01;1.30;;;1.20;;
13319;SDS011;59599;47.608;12.190;2024-03-29T10:12:28;2.45;;;1.05;;
13319;SDS011;59599;47.608;12.190;2024-03-29T10:14:54;1.57;;;1.00;;
13319;SDS011;59599;47.608;12.190;2024-03-29T10:17:30;2.67;;;1.23;;
13319;SDS011;59599;47.608;12.190;2024-03-29T10:20:02;1.93;;;1.10;;
13319;SDS011;59599;47.608;12.190;2024-03-29T10:22:29;3.63;;;0.80;;
13319;SDS011;59599;47.608;12.190;2024-03-29T10:24:58;1.00;;;0.80;;
13319;SDS011;59599;47.608;12.190;2024-03-29T10:27:25;2.40;;;1.10;;
13319;SDS011;59599;47.608;12.190;2024-03-29T10:29:52;1.20;;;1.10;;
13319;SDS011;59599;47.608;12.190;2024-03-29T10:32:18;1.80;;;1.00;;
13319;SDS011;59599;47.608;12.190;2024-03-29T10:34:44;2.07;;;1.00;;
13319;SDS011;59599;47.608;12.190;2024-03-29T10:37:10;1.27;;;1.00;;
13319;SDS011;59599;47.608;12.190;2024-03-29T10:39:36;1.40;;;0.90;;
13319;SDS011;59599;47.608;12.190;2024-03-29T10:42:02;1.53;;;1.00;;
13319;SDS011;59599;47.608;12.190;2024-03-29T10:44:30;1.37;;;0.87;;
13319;SDS011;59599;47.608;12.190;2024-03-29T10:46:56;2.90;;;1.00;;
13319;SDS011;59599;47.608;12.190;2024-03-29T10:49:23;1.10;;;0.70;;
13319;SDS011;59599;47.608;12.190;2024-03-29T10:51:49;1.57;;;0.93;;
13319;SDS011;59599;47.608;12.190;2024-03-29T10:54:16;2.37;;;0.93;;
13319;SDS011;59599;47.608;12.190;2024-03-29T10:56:42;3.50;;;0.90;;
13319;SDS011;59599;47.608;12.190;2024-03-29T11:01:41;1.00;;;0.80;;
13319;SDS011;59599;47.608;12.190;2024-03-29T11:04:13;2.50;;;0.93;;
13319;SDS011;59599;47.608;12.190;2024-03-29T11:06:42;3.10;;;0.90;;
13319;SDS011;59599;47.608;12.190;2024-03-29T11:09:12;1.67;;;0.93;;
13319;SDS011;59599;47.608;12.190;2024-03-29T11:11:40;1.00;;;0.83;;
13319;SDS011;59599;47.608;12.190;2024-03-29T11:14:10;1.60;;;1.00;;
13319;SDS011;59599;47.608;12.190;2024-03-29T11:16:53;1.47;;;0.77;;
13319;SDS011;59599;47.608;12.190;2024-03-29T11:19:22;4.70;;;1.03;;
13319;SDS011;59599;47.608;12.190;2024-03-29T11:21:48;1.87;;;1.10;;
13319;SDS011;59599;47.608;12.190;2024-03-29T11:24:17;1.57;;;1.10;;
13319;SDS011;59599;47.608;12.190;2024-03-29T11:26:44;3.47;;;1.00;;
13319;SDS011;59599;47.608;12.190;2024-03-29T11:29:20;3.27;;;1.20;;
13319;SDS011;59599;47.608;12.190;2024-03-29T11:31:47;1.30;;;1.00;;
13319;SDS011;59599;47.608;12.190;2024-03-29T11:34:18;1.30;;;0.90;;
13319;SDS011;59599;47.608;12.190;2024-03-29T11:36:45;1.97;;;1.37;;
13319;SDS011;59599;47.608;12.190;2024-03-29T11:39:20;2.80;;;1.10;;
13319;SDS011;59599;47.608;12.190;2024-03-29T11:41:49;2.70;;;0.70;;
13319;SDS011;59599;47.608;12.190;2024-03-29T11:44:15;2.63;;;1.00;;
13319;SDS011;59599;47.608;12.190;2024-03-29T11:46:42;1.77;;;0.90;;
13319;SDS011;59599;47.608;12.190;2024-03-29T11:49:09;4.57;;;1.20;;
13319;SDS011;59599;47.608;12.190;2024-03-29T11:51:35;2.07;;;1.03;;
13319;SDS011;59599;47.608;12.190;2024-03-29T11:54:00;5.18;;;1.08;;
13319;SDS011;59599;47.608;12.190;2024-03-29T11:56:27;0.90;;;0.70;;
13319;SDS011;59599;47.608;12.190;2024-03-29T11:58:53;2.38;;;0.70;;
13319;SDS011;59599;47.608;12.190;2024-03-29T12:01:24;1.25;;;0.80;;
13319;SDS011;59599;47.608;12.190;2024-03-29T12:03:50;1.25;;;0.80;;
13319;SDS011;59599;47.608;12.190;2024-03-29T12:06:16;3.97;;;1.13;;
13319;SDS011;59599;47.608;12.190;2024-03-29T12:08:43;2.83;;;0.80;;
13319;SDS011;59599;47.608;12.190;2024-03-29T12:11:09;4.22;;;0.60;;
13319;SDS011;59599;47.608;12.190;2024-03-29T12:13:36;3.15;;;0.70;;
13319;SDS011;59599;47.608;12.190;2024-03-29T12:16:02;1.10;;;0.90;;
13319;SDS011;59599;47.608;12.190;2024-03-29T12:18:32;1.08;;;0.80;;
13319;SDS011;59599;47.608;12.190;2024-03-29T12:20:58;2.25;;;0.80;;
13319;SDS011;59599;47.608;12.190;2024-03-29T12:23:24;1.83;;;0.88;;
13319;SDS011;59599;47.608;12.190;2024-03-29T12:25:51;1.00;;;0.50;;
13319;SDS011;59599;47.608;12.190;2024-03-29T12:28:23;1.00;;;0.90;;
13319;SDS011;59599;47.608;12.190;2024-03-29T12:30:52;1.95;;;1.00;;
13319;SDS011;59599;47.608;12.190;2024-03-29T12:33:20;0.85;;;0.68;;
13319;SDS011;59599;47.608;12.190;2024-03-29T12:35:47;0.90;;;0.70;;
13319;SDS011;59599;47.608;12.190;2024-03-29T12:38:15;1.05;;;0.80;;
13319;SDS011;59599;47.608;12.190;2024-03-29T12:40:42;1.42;;;0.90;;
13319;SDS011;59599;47.608;12.190;2024-03-29T12:43:10;0.55;;;0.50;;
13319;SDS011;59599;47.608;12.190;2024-03-29T12:45:36;0.60;;;0.55;;
13319;SDS011;59599;47.608;12.190;2024-03-29T12:48:14;1.02;;;0.70;;
13319;SDS011;59599;47.608;12.190;2024-03-29T12:50:44;3.42;;;0.70;;
13319;SDS011;59599;47.608;12.190;2024-03-29T12:53:11;1.30;;;0.60;;
13319;SDS011;59599;47.608;12.190;2024-03-29T12:55:41;1.05;;;0.70;;
13319;SDS011;59599;47.608;12.190;2024-03-29T12:58:12;0.80;;;0.80;;
13319;SDS011;59599;47.608;12.190;2024-03-29T13:00:39;0.50;;;0.50;;
13319;SDS011;59599;47.608;12.190;2024-03-29T13:03:05;0.50;;;0.47;;
13319;SDS011;59599;47.608;12.190;2024-03-29T13:05:32;0.88;;;0.82;;
13319;SDS011;59599;47.608;12.190;2024-03-29T13:08:04;0.45;;;0.45;;
13319;SDS011;59599;47.608;12.190;2024-03-29T13:10:33;0.85;;;0.60;;
13319;SDS011;59599;47.608;12.190;2024-03-29T13:12:59;0.32;;;0.32;;
13319;SDS011;59599;47.608;12.190;2024-03-29T13:15:26;0.55;;;0.50;;
13319;SDS011;59599;47.608;12.190;2024-03-29T13:17:53;1.15;;;0.65;;
13319;SDS011;59599;47.608;12.190;2024-03-29T13:20:19;0.52;;;0.52;;
13319;SDS011;59599;47.608;12.190;2024-03-29T13:22:46;0.50;;;0.40;;
13319;SDS011;59599;47.608;12.190;2024-03-29T13:25:14;0.05;;;0.00;;
13319;SDS011;59599;47.608;12.190;2024-03-29T13:27:43;0.20;;;0.20;;
13319;SDS011;59599;47.608;12.190;2024-03-29T13:30:10;1.00;;;0.43;;
13319;SDS011;59599;47.608;12.190;2024-03-29T13:32:40;0.20;;;0.20;;
13319;SDS011;59599;47.608;12.190;2024-03-29T13:35:07;0.20;;;0.20;;
13319;SDS011;59599;47.608;12.190;2024-03-29T13:37:40;0.60;;;0.28;;
13319;SDS011;59599;47.608;12.190;2024-03-29T13:40:06;1.02;;;0.38;;
13319;SDS011;59599;47.608;12.190;2024-03-29T13:42:36;0.28;;;0.28;;
13319;SDS011;59599;47.608;12.190;2024-03-29T13:45:03;0.63;;;0.32;;
13319;SDS011;59599;47.608;12.190;2024-03-29T13:47:30;0.20;;;0.00;;
13319;SDS011;59599;47.608;12.190;2024-03-29T13:49:57;2.00;;;0.40;;
13319;SDS011;59599;47.608;12.190;2024-03-29T13:52:23;1.02;;;0.30;;
13319;SDS011;59599;47.608;12.190;2024-03-29T13:54:49;0.10;;;0.10;;
13319;SDS011;59599;47.608;12.190;2024-03-29T13:57:18;1.08;;;0.20;;
13319;SDS011;59599;47.608;12.190;2024-03-29T13:59:45;2.05;;;0.20;;
13319;SDS011;59599;47.608;12.190;2024-03-29T14:02:11;0.20;;;0.20;;
13319;SDS011;59599;47.608;12.190;2024-03-29T14:04:38;0.25;;;0.20;;
13319;SDS011;59599;47.608;12.190;2024-03-29T14:07:04;0.98;;;0.30;;
13319;SDS011;59599;47.608;12.190;2024-03-29T14:09:34;0.38;;;0.30;;
13319;SDS011;59599;47.608;12.190;2024-03-29T14:12:00;0.20;;;0.20;;
13319;SDS011;59599;47.608;12.190;2024-03-29T14:14:27;2.20;;;0.60;;
13319;SDS011;59599;47.608;12.190;2024-03-29T14:16:53;0.40;;;0.30;;
13319;SDS011;59599;47.608;12.190;2024-03-29T14:19:18;0.60;;;0.30;;
13319;SDS011;59599;47.608;12.190;2024-03-29T14:21:44;1.27;;;0.30;;
13319;SDS011;59599;47.608;12.190;2024-03-29T14:24:10;0.13;;;0.13;;
13319;SDS011;59599;47.608;12.190;2024-03-29T14:26:36;1.45;;;0.35;;
13319;SDS011;59599;47.608;12.190;2024-03-29T14:29:03;0.90;;;0.40;;
13319;SDS011;59599;47.608;12.190;2024-03-29T14:31:31;0.43;;;0.20;;
13319;SDS011;59599;47.608;12.190;2024-03-29T14:33:57;0.40;;;0.28;;
13319;SDS011;59599;47.608;12.190;2024-03-29T14:36:23;0.50;;;0.40;;
13319;SDS011;59599;47.608;12.190;2024-03-29T14:38:49;0.73;;;0.30;;
13319;SDS011;59599;47.608;12.190;2024-03-29T14:41:15;0.10;;;0.10;;
13319;SDS011;59599;47.608;12.190;2024-03-29T14:43:41;1.58;;;0.20;;
13319;SDS011;59599;47.608;12.190;2024-03-29T14:46:09;1.67;;;0.30;;
13319;SDS011;59599;47.608;12.190;2024-03-29T14:48:35;0.65;;;0.30;;
13319;SDS011;59599;47.608;12.190;2024-03-29T14:51:01;0.15;;;0.13;;
13319;SDS011;59599;47.608;12.190;2024-03-29T14:53:27;0.50;;;0.43;;
13319;SDS011;59599;47.608;12.190;2024-03-29T14:55:52;0.30;;;0.30;;
13319;SDS011;59599;47.608;12.190;2024-03-29T14:58:18;0.38;;;0.35;;
13319;SDS011;59599;47.608;12.190;2024-03-29T15:00:44;1.45;;;0.70;;
13319;SDS011;59599;47.608;12.190;2024-03-29T15:03:12;2.00;;;0.77;;
13319;SDS011;59599;47.608;12.190;2024-03-29T15:05:37;3.72;;;0.90;;
13319;SDS011;59599;47.608;12.190;2024-03-29T15:08:03;3.42;;;1.08;;
13319;SDS011;59599;47.608;12.190;2024-03-29T15:10:29;3.72;;;0.90;;
13319;SDS011;59599;47.608;12.190;2024-03-29T15:12:57;2.45;;;0.80;;
13319;SDS011;59599;47.608;12.190;2024-03-29T15:15:23;5.45;;;1.45;;
13319;SDS011;59599;47.608;12.190;2024-03-29T15:17:49;8.43;;;1.70;;
13319;SDS011;59599;47.608;12.190;2024-03-29T15:20:15;5.38;;;1.80;;
13319;SDS011;59599;47.608;12.190;2024-03-29T15:22:41;12.95;;;3.10;;
13319;SDS011;59599;47.608;12.190;2024-03-29T15:25:12;16.83;;;2.42;;
13319;SDS011;59599;47.608;12.190;2024-03-29T15:27:38;16.00;;;2.40;;
13319;SDS011;59599;47.608;12.190;2024-03-29T15:30:23;15.73;;;3.17;;
13319;SDS011;59599;47.608;12.190;2024-03-29T15:32:49;9.52;;;2.13;;
13319;SDS011;59599;47.608;12.190;2024-03-29T15:35:14;16.73;;;3.45;;
13319;SDS011;59599;47.608;12.190;2024-03-29T15:37:40;15.88;;;3.15;;
13319;SDS011;59599;47.608;12.190;2024-03-29T15:40:06;12.88;;;2.60;;
13319;SDS011;59599;47.608;12.190;2024-03-29T15:42:32;24.48;;;3.50;;
13319;SDS011;59599;47.608;12.190;2024-03-29T15:45:01;25.33;;;3.60;;
13319;SDS011;59599;47.608;12.190;2024-03-29T15:47:27;24.42;;;4.78;;
13319;SDS011;59599;47.608;12.190;2024-03-29T15:49:54;22.17;;;4.20;;
13319;SDS011;59599;47.608;12.190;2024-03-29T15:52:20;23.13;;;4.78;;
13319;SDS011;59599;47.608;12.190;2024-03-29T15:54:46;31.08;;;5.00;;
13319;SDS011;59599;47.608;12.190;2024-03-29T15:57:12;32.90;;;5.53;;
13319;SDS011;59599;47.608;12.190;2024-03-29T15:59:37;33.25;;;6.63;;
13319;SDS011;59599;47.608;12.190;2024-03-29T16:02:05;50.13;;;7.10;;
13319;SDS011;59599;47.608;12.190;2024-03-29T16:04:31;33.33;;;7.70;;
13319;SDS011;59599;47.608;12.190;2024-03-29T16:07:01;41.42;;;6.30;;
13319;SDS011;59599;47.608;12.190;2024-03-29T16:09:27;43.97;;;7.95;;
13319;SDS011;59599;47.608;12.190;2024-03-29T16:11:54;46.22;;;7.50;;
13319;SDS011;59599;47.608;12.190;2024-03-29T16:14:20;42.00;;;7.15;;
13319;SDS011;59599;47.608;12.190;2024-03-29T16:16:48;52.45;;;8.02;;
13319;SDS011;59599;47.608;12.190;2024-03-29T16:19:14;64.95;;;9.85;;
13319;SDS011;59599;47.608;12.190;2024-03-29T16:21:40;56.50;;;9.00;;
13319;SDS011;59599;47.608;12.190;2024-03-29T16:24:06;70.15;;;11.20;;
13319;SDS011;59599;47.608;12.190;2024-03-29T16:26:32;71.10;;;10.07;;
13319;SDS011;59599;47.608;12.190;2024-03-29T16:28:58;67.57;;;10.38;;
13319;SDS011;59599;47.608;12.190;2024-03-29T16:31:31;60.78;;;10.05;;
13319;SDS011;59599;47.608;12.190;2024-03-29T16:33:57;73.25;;;12.07;;
13319;SDS011;59599;47.608;12.190;2024-03-29T16:36:23;67.13;;;11.82;;
13319;SDS011;59599;47.608;12.190;2024-03-29T16:38:48;86.50;;;14.68;;
13319;SDS011;59599;47.608;12.190;2024-03-29T16:41:15;86.70;;;13.18;;
13319;SDS011;59599;47.608;12.190;2024-03-29T16:43:41;91.97;;;13.55;;
13319;SDS011;59599;47.608;12.190;2024-03-29T16:46:07;85.32;;;13.70;;
13319;SDS011;59599;47.608;12.190;2024-03-29T16:48:33;93.15;;;13.80;;
13319;SDS011;59599;47.608;12.190;2024-03-29T16:50:59;95.68;;;14.02;;
13319;SDS011;59599;47.608;12.190;2024-03-29T16:53:25;90.53;;;16.20;;
13319;SDS011;59599;47.608;12.190;2024-03-29T16:55:51;88.47;;;16.13;;
13319;SDS011;59599;47.608;12.190;2024-03-29T16:58:17;90.95;;;14.43;;
13319;SDS011;59599;47.608;12.190;2024-03-29T17:00:43;93.03;;;15.32;;
13319;SDS011;59599;47.608;12.190;2024-03-29T17:03:14;97.45;;;15.60;;
13319;SDS011;59599;47.608;12.190;2024-03-29T17:05:40;114.10;;;16.67;;
13319;SDS011;59599;47.608;12.190;2024-03-29T17:08:06;99.20;;;14.93;;
13319;SDS011;59599;47.608;12.190;2024-03-29T17:10:32;112.53;;;16.83;;
13319;SDS011;59599;47.608;12.190;2024-03-29T17:12:57;106.57;;;17.25;;
13319;SDS011;59599;47.608;12.190;2024-03-29T17:15:23;113.15;;;17.27;;
13319;SDS011;59599;47.608;12.190;2024-03-29T17:17:49;116.90;;;19.60;;
13319;SDS011;59599;47.608;12.190;2024-03-29T17:20:15;114.97;;;18.83;;
13319;SDS011;59599;47.608;12.190;2024-03-29T17:22:41;99.80;;;18.50;;
13319;SDS011;59599;47.608;12.190;2024-03-29T17:25:07;101.18;;;16.98;;
13319;SDS011;59599;47.608;12.190;2024-03-29T17:27:36;109.50;;;16.35;;
13319;SDS011;59599;47.608;12.190;2024-03-29T17:30:03;103.93;;;16.58;;
13319;SDS011;59599;47.608;12.190;2024-03-29T17:32:29;111.95;;;18.80;;
13319;SDS011;59599;47.608;12.190;2024-03-29T17:34:55;106.18;;;18.27;;
13319;SDS011;59599;47.608;12.190;2024-03-29T17:37:21;112.95;;;19.13;;
13319;SDS011;59599;47.608;12.190;2024-03-29T17:39:47;121.78;;;17.90;;
13319;SDS011;59599;47.608;12.190;2024-03-29T17:42:13;108.05;;;18.08;;
13319;SDS011;59599;47.608;12.190;2024-03-29T17:44:39;121.32;;;18.10;;
13319;SDS011;59599;47.608;12.190;2024-03-29T17:47:05;117.18;;;18.70;;
13319;SDS011;59599;47.608;12.190;2024-03-29T17:49:31;111.72;;;17.58;;
13319;SDS011;59599;47.608;12.190;2024-03-29T17:51:57;129.25;;;20.42;;
13319;SDS011;59599;47.608;12.190;2024-03-29T17:54:23;136.35;;;20.58;;
13319;SDS011;59599;47.608;12.190;2024-03-29T17:56:49;146.65;;;22.27;;
13319;SDS011;59599;47.608;12.190;2024-03-29T17:59:14;157.20;;;21.35;;
13319;SDS011;59599;47.608;12.190;2024-03-29T18:01:43;134.68;;;21.75;;
13319;SDS011;59599;47.608;12.190;2024-03-29T18:04:13;140.85;;;21.95;;
13319;SDS011;59599;47.608;12.190;2024-03-29T18:06:39;147.85;;;22.25;;
13319;SDS011;59599;47.608;12.190;2024-03-29T18:09:05;144.73;;;22.42;;
13319;SDS011;59599;47.608;12.190;2024-03-29T18:11:33;146.00;;;22.88;;
13319;SDS011;59599;47.608;12.190;2024-03-29T18:14:00;141.10;;;22.48;;
13319;SDS011;59599;47.608;12.190;2024-03-29T18:16:26;122.85;;;20.02;;
13319;SDS011;59599;47.608;12.190;2024-03-29T18:18:54;158.93;;;22.30;;
13319;SDS011;59599;47.608;12.190;2024-03-29T18:21:22;166.10;;;26.20;;
13319;SDS011;59599;47.608;12.190;2024-03-29T18:23:48;156.95;;;23.88;;
13319;SDS011;59599;47.608;12.190;2024-03-29T18:26:14;147.68;;;24.83;;
13319;SDS011;59599;47.608;12.190;2024-03-29T18:28:39;160.88;;;25.75;;
13319;SDS011;59599;47.608;12.190;2024-03-29T18:31:05;169.38;;;24.73;;
13319;SDS011;59599;47.608;12.190;2024-03-29T18:33:37;168.63;;;25.92;;
13319;SDS011;59599;47.608;12.190;2024-03-29T18:36:04;177.40;;;26.20;;
13319;SDS011;59599;47.608;12.190;2024-03-29T18:38:30;147.77;;;25.67;;
13319;SDS011;59599;47.608;12.190;2024-03-29T18:41:05;191.32;;;29.52;;
13319;SDS011;59599;47.608;12.190;2024-03-29T18:43:31;191.27;;;25.83;;
13319;SDS011;59599;47.608;12.190;2024-03-29T18:46:02;191.93;;;28.45;;
13319;SDS011;59599;47.608;12.190;2024-03-29T18:48:28;174.65;;;26.08;;
13319;SDS011;59599;47.608;12.190;2024-03-29T18:50:55;159.48;;;23.55;;
13319;SDS011;59599;47.608;12.190;2024-03-29T18:53:21;174.30;;;28.65;;
13319;SDS011;59599;47.608;12.190;2024-03-29T18:55:53;219.18;;;29.77;;
13319;SDS011;59599;47.608;12.190;2024-03-29T18:58:19;183.50;;;29.67;;
13319;SDS011;59599;47.608;12.190;2024-03-29T19:00:45;177.50;;;27.20;;
13319;SDS011;59599;47.608;12.190;2024-03-29T19:03:11;197.40;;;29.48;;
13319;SDS011;59599;47.608;12.190;2024-03-29T19:05:37;191.75;;;30.00;;
13319;SDS011;59599;47.608;12.190;2024-03-29T19:08:03;202.00;;;28.83;;
13319;SDS011;59599;47.608;12.190;2024-03-29T19:10:29;192.05;;;28.40;;
13319;SDS011;59599;47.608;12.190;2024-03-29T19:12:54;210.32;;;28.83;;
13319;SDS011;59599;47.608;12.190;2024-03-29T19:15:21;176.50;;;28.15;;
13319;SDS011;59599;47.608;12.190;2024-03-29T19:17:47;191.85;;;28.85;;
13319;SDS011;59599;47.608;12.190;2024-03-29T19:20:15;184.95;;;31.58;;
13319;SDS011;59599;47.608;12.190;2024-03-29T19:22:40;181.48;;;29.98;;
13319;SDS011;59599;47.608;12.190;2024-03-29T19:25:06;221.88;;;31.05;;
13319;SDS011;59599;47.608;12.190;2024-03-29T19:27:32;209.90;;;31.25;;